Time;durP1;ratioP1;P1;durP2;ratioP2;P2;SDS_P1;SDS_P2;PMS_P1;PMS_P2;Temp;Humidity;BMP_temperature;BMP_pressure;BME280_temperature;BME280_humidity;BME280_pressure;Samples;Min_cycle;Max_cycle;Signal;HPM_P1;HPM_P2
2021/12/02 00:00:53;;;;;;;0.00;0.00;;;7.20;99.90;;;;;;5093715;28;20542;-47
2021/12/02 00:03:19;;;;;;;0.10;0.10;;;7.20;99.90;;;;;;5082360;28;20067;-48
2021/12/02 00:05:45;;;;;;;0.00;0.00;;;7.20;99.90;;;;;;5073263;28;20463;-47
2021/12/02 00:08:10;;;;;;;0.00;0.00;;;7.20;99.90;;;;;;5055686;28;20086;-49
2021/12/02 00:10:37;;;;;;;0.05;0.05;;;7.30;99.90;;;;;;5072339;28;20025;-47
2021/12/02 00:13:03;;;;;;;0.00;0.00;;;7.20;99.90;;;;;;5073360;28;20031;-46
2021/12/02 00:15:36;;;;;;;0.08;0.08;;;7.20;99.90;;;;;;5073269;28;20035;-46
2021/12/02 00:21:07;;;;;;;0.20;0.08;;;7.20;99.90;;;;;;5073643;28;20371;-51
2021/12/02 00:23:47;;;;;;;0.00;0.00;;;7.20;99.90;;;;;;5073356;28;20074;-47
2021/12/02 00:26:16;;;;;;;0.00;0.00;;;7.20;99.90;;;;;;5073590;28;20063;-45
2021/12/02 00:28:42;;;;;;;0.10;0.10;;;7.20;99.90;;;;;;5073082;28;20024;-49
2021/12/02 00:31:16;;;;;;;0.00;0.00;;;7.10;99.90;;;;;;5073266;28;20028;-46
2021/12/02 00:33:48;;;;;;;0.00;0.00;;;7.10;99.90;;;;;;5073385;28;20036;-45
2021/12/02 00:36:15;;;;;;;0.00;0.00;;;7.20;99.90;;;;;;5073304;28;20533;-49
2021/12/02 00:38:42;;;;;;;0.00;0.00;;;7.20;99.90;;;;;;5055315;28;20071;-47
2021/12/02 00:41:13;;;;;;;0.00;0.00;;;7.20;99.90;;;;;;5073173;28;20056;-45
2021/12/02 00:43:39;;;;;;;0.00;0.00;;;7.20;99.90;;;;;;5073421;28;20137;-49
2021/12/02 00:46:08;;;;;;;0.10;0.10;;;7.20;99.90;;;;;;5073306;28;20459;-49
2021/12/02 00:48:36;;;;;;;0.10;0.10;;;7.20;99.90;;;;;;5073217;28;20375;-50
2021/12/02 00:51:03;;;;;;;0.00;0.00;;;7.20;99.90;;;;;;5073289;28;20052;-49
2021/12/02 00:53:32;;;;;;;0.10;0.10;;;7.20;99.90;;;;;;5072987;28;20029;-47
2021/12/02 00:56:02;;;;;;;0.00;0.00;;;7.20;99.90;;;;;;5073007;28;20025;-47
2021/12/02 00:58:30;;;;;;;0.00;0.00;;;7.20;99.90;;;;;;5054844;28;20024;-47
2021/12/02 01:00:57;;;;;;;0.00;0.00;;;7.10;99.90;;;;;;5073185;28;20036;-49
2021/12/02 01:03:24;;;;;;;0.00;0.00;;;7.10;99.90;;;;;;5084907;28;20359;-47
2021/12/02 01:05:52;;;;;;;0.00;0.00;;;7.10;99.90;;;;;;5092982;28;20028;-46
2021/12/02 01:08:19;;;;;;;0.10;0.10;;;7.10;99.90;;;;;;5093138;28;20028;-51
2021/12/02 01:10:44;;;;;;;0.00;0.00;;;7.10;99.90;;;;;;5092959;28;20379;-47
2021/12/02 01:13:10;;;;;;;0.15;0.10;;;7.10;99.90;;;;;;5092953;28;20028;-48
2021/12/02 01:15:36;;;;;;;0.08;0.08;;;7.00;99.90;;;;;;5075066;28;20455;-48
2021/12/02 01:18:02;;;;;;;0.00;0.00;;;7.00;99.90;;;;;;5093248;28;20063;-47
2021/12/02 01:20:31;;;;;;;0.00;0.00;;;6.90;99.90;;;;;;5075032;28;20028;-46
2021/12/02 01:22:59;;;;;;;0.00;0.00;;;6.80;99.90;;;;;;5095083;28;20028;-48
2021/12/02 01:25:30;;;;;;;0.10;0.10;;;6.70;99.90;;;;;;5096910;28;20055;-48
2021/12/02 01:27:58;;;;;;;0.00;0.00;;;6.70;99.90;;;;;;5097005;28;20066;-49
2021/12/02 01:30:26;;;;;;;0.22;0.17;;;6.70;99.90;;;;;;5096809;28;20032;-46
2021/12/02 01:32:57;;;;;;;0.00;0.00;;;6.70;99.90;;;;;;5078669;28;20036;-47
2021/12/02 01:35:25;;;;;;;11.38;0.20;;;6.70;99.90;;;;;;5096545;28;20428;-46
2021/12/02 01:37:51;;;;;;;0.60;0.17;;;6.60;99.90;;;;;;5096720;28;20379;-47
2021/12/02 01:40:17;;;;;;;0.00;0.00;;;6.50;99.90;;;;;;5096851;28;20081;-46
2021/12/02 01:42:46;;;;;;;0.00;0.00;;;6.50;99.90;;;;;;5096470;28;20053;-47
2021/12/02 01:45:16;;;;;;;0.00;0.00;;;6.50;99.90;;;;;;5096401;28;20387;-48
2021/12/02 01:47:49;;;;;;;0.00;0.00;;;6.40;99.90;;;;;;5096711;28;20054;-45
2021/12/02 01:50:17;;;;;;;0.00;0.00;;;6.40;99.90;;;;;;5096391;28;20063;-45
2021/12/02 01:52:55;;;;;;;0.00;0.00;;;6.40;99.90;;;;;;5096181;28;20032;-49
2021/12/02 01:55:21;;;;;;;0.00;0.00;;;6.30;99.90;;;;;;5096488;28;20031;-48
2021/12/02 01:57:58;;;;;;;0.08;0.08;;;6.30;99.90;;;;;;5096750;28;20450;-48
2021/12/02 02:00:44;;;;;;;0.30;0.10;;;6.30;99.90;;;;;;5096484;28;20032;-48
2021/12/02 02:03:12;;;;;;;0.00;0.00;;;6.30;99.90;;;;;;5096345;28;20052;-48
2021/12/02 02:05:38;;;;;;;0.00;0.00;;;6.20;99.90;;;;;;5096242;28;20024;-49
2021/12/02 02:08:21;;;;;;;0.00;0.00;;;6.20;99.90;;;;;;5096306;28;20028;-48
2021/12/02 02:10:49;;;;;;;0.00;0.00;;;6.20;99.90;;;;;;5096188;28;20032;-46
2021/12/02 02:13:17;;;;;;;0.05;0.05;;;6.20;99.90;;;;;;5096303;28;20024;-50
2021/12/02 02:15:46;;;;;;;0.00;0.00;;;6.20;99.90;;;;;;5096079;28;20028;-46
2021/12/02 02:18:19;;;;;;;0.00;0.00;;;6.20;99.90;;;;;;5095980;28;20352;-49
2021/12/02 02:23:24;;;;;;;0.00;0.00;;;6.10;99.90;;;;;;5095869;28;20024;-46
2021/12/02 02:25:50;;;;;;;0.00;0.00;;;6.10;99.90;;;;;;5095839;28;20115;-47
2021/12/02 02:28:16;;;;;;;0.30;0.00;;;6.10;99.90;;;;;;5095809;28;20099;-49
2021/12/02 02:30:42;;;;;;;0.00;0.00;;;6.10;99.90;;;;;;5095699;28;20031;-50
2021/12/02 02:33:10;;;;;;;0.00;0.00;;;6.10;99.90;;;;;;5094489;28;20463;-49
2021/12/02 02:35:36;;;;;;;2.90;0.22;;;6.20;99.90;;;;;;5095458;28;20028;-52
2021/12/02 02:38:02;;;;;;;0.00;0.00;;;6.20;99.90;;;;;;5095807;28;20032;-48
2021/12/02 02:40:28;;;;;;;0.00;0.00;;;6.20;99.90;;;;;;5095440;28;20036;-49
2021/12/02 02:42:59;;;;;;;0.05;0.05;;;6.30;99.90;;;;;;5095341;28;20423;-46
2021/12/02 02:45:25;;;;;;;0.10;0.10;;;6.30;99.90;;;;;;5095537;28;20495;-47
2021/12/02 02:47:51;;;;;;;0.00;0.00;;;6.30;99.90;;;;;;5095650;28;20057;-49
2021/12/02 02:50:17;;;;;;;0.00;0.00;;;6.40;99.90;;;;;;5095184;28;20383;-49
2021/12/02 02:52:45;;;;;;;0.30;0.30;;;6.40;99.90;;;;;;5095353;28;20081;-47
2021/12/02 02:55:15;;;;;;;0.00;0.00;;;6.40;99.90;;;;;;5094952;28;20016;-48
2021/12/02 02:58:00;;;;;;;0.35;0.22;;;6.40;99.90;;;;;;5095133;28;20445;-47
2021/12/02 03:00:38;;;;;;;0.00;0.00;;;6.40;99.90;;;;;;5090437;28;20136;-47
2021/12/02 03:03:35;;;;;;;0.00;0.00;;;6.40;99.90;;;;;;5074575;28;20071;-48
2021/12/02 03:06:08;;;;;;;0.00;0.00;;;6.40;99.90;;;;;;5084317;28;20035;-52
2021/12/02 03:08:41;;;;;;;0.10;0.10;;;6.40;99.90;;;;;;5090294;28;20020;-47
2021/12/02 03:11:10;;;;;;;0.65;0.25;;;6.30;99.90;;;;;;5094638;28;20474;-48
2021/12/02 03:13:48;;;;;;;0.10;0.10;;;6.20;99.90;;;;;;5078321;28;20085;-51
2021/12/02 03:18:58;;;;;;;0.32;0.32;;;6.00;99.90;;;;;;5093308;28;20402;-49
2021/12/02 03:21:24;;;;;;;0.00;0.00;;;6.00;99.90;;;;;;5093543;28;20020;-48
2021/12/02 03:23:56;;;;;;;0.00;0.00;;;6.00;99.90;;;;;;5093161;28;20023;-48
2021/12/02 03:26:22;;;;;;;0.10;0.10;;;6.00;99.90;;;;;;5096808;28;20691;-48
2021/12/02 03:28:49;;;;;;;0.00;0.00;;;6.00;99.90;;;;;;5092909;28;20032;-51
2021/12/02 03:31:15;;;;;;;0.38;0.10;;;6.00;99.90;;;;;;5074776;28;20530;-48
2021/12/02 03:33:41;;;;;;;0.00;0.00;;;5.40;99.90;;;;;;5092978;28;20150;-46
2021/12/02 03:36:09;;;;;;;0.00;0.00;;;4.70;99.90;;;;;;5092009;28;20069;-46
2021/12/02 03:38:35;;;;;;;0.00;0.00;;;4.50;99.90;;;;;;5093039;28;20016;-47
2021/12/02 03:41:00;;;;;;;0.00;0.00;;;4.50;99.90;;;;;;5092649;28;20477;-48
2021/12/02 03:43:27;;;;;;;0.00;0.00;;;4.50;99.90;;;;;;5093450;28;20024;-46
2021/12/02 03:45:54;;;;;;;0.00;0.00;;;4.40;99.90;;;;;;5092720;28;20089;-56
2021/12/02 03:48:19;;;;;;;0.00;0.00;;;4.40;99.90;;;;;;5092009;28;20027;-47
2021/12/02 03:50:45;;;;;;;0.10;0.10;;;4.40;99.90;;;;;;5092584;28;20077;-49
2021/12/02 03:53:11;;;;;;;0.00;0.00;;;4.40;99.90;;;;;;5093145;28;20030;-46
2021/12/02 03:55:36;;;;;;;0.00;0.00;;;4.30;99.90;;;;;;5093258;28;20032;-50
2021/12/02 03:58:03;;;;;;;0.00;0.00;;;4.40;99.90;;;;;;5092590;28;20027;-47
2021/12/02 04:00:28;;;;;;;0.00;0.00;;;4.40;99.90;;;;;;5092689;28;20305;-48
2021/12/02 04:02:54;;;;;;;0.00;0.00;;;4.50;99.90;;;;;;5089692;28;20426;-51
2021/12/02 04:05:20;;;;;;;0.00;0.00;;;4.50;99.90;;;;;;5083565;28;20478;-48
2021/12/02 04:07:46;;;;;;;0.00;0.00;;;4.60;99.90;;;;;;5060622;28;20031;-48
2021/12/02 04:10:12;;;;;;;0.00;0.00;;;4.60;99.90;;;;;;5079162;28;20060;-49
2021/12/02 04:12:50;;;;;;;0.00;0.00;;;4.60;99.90;;;;;;5079354;28;20031;-47
2021/12/02 04:15:29;;;;;;;0.00;0.00;;;4.70;99.90;;;;;;5079967;28;20036;-48
2021/12/02 04:17:55;;;;;;;0.00;0.00;;;4.80;99.90;;;;;;5067464;28;20027;-46
2021/12/02 04:20:22;;;;;;;0.00;0.00;;;4.80;99.90;;;;;;5059486;28;20028;-46
2021/12/02 04:22:50;;;;;;;0.00;0.00;;;4.70;99.90;;;;;;5065693;28;20448;-47
2021/12/02 04:25:16;;;;;;;0.00;0.00;;;4.90;99.90;;;;;;5035623;28;20036;-48
2021/12/02 04:27:43;;;;;;;0.00;0.00;;;4.90;99.90;;;;;;5053077;28;20040;-46
2021/12/02 04:30:12;;;;;;;0.00;0.00;;;4.80;99.90;;;;;;5053394;28;20025;-51
2021/12/02 04:32:38;;;;;;;0.00;0.00;;;5.00;99.90;;;;;;5064292;28;20063;-51
2021/12/02 04:35:05;;;;;;;0.00;0.00;;;5.00;99.90;;;;;;5071747;28;20487;-49
2021/12/02 04:37:30;;;;;;;0.00;0.00;;;5.00;99.90;;;;;;5069820;28;20108;-51
2021/12/02 04:39:57;;;;;;;0.00;0.00;;;5.10;99.90;;;;;;5053192;28;20131;-50
2021/12/02 04:42:22;;;;;;;0.00;0.00;;;5.20;99.90;;;;;;5070938;28;20032;-52
2021/12/02 04:44:48;;;;;;;3.20;1.88;;;5.10;99.90;;;;;;5070999;28;20086;-48
2021/12/02 04:47:14;;;;;;;0.00;0.00;;;5.20;99.90;;;;;;5070798;28;20021;-49
2021/12/02 04:49:41;;;;;;;0.00;0.00;;;5.20;99.90;;;;;;5071074;28;20107;-52
2021/12/02 04:52:07;;;;;;;0.00;0.00;;;5.20;99.90;;;;;;5072616;28;20028;-46
2021/12/02 04:54:33;;;;;;;0.00;0.00;;;5.30;99.90;;;;;;5065426;28;20357;-49
2021/12/02 04:56:59;;;;;;;0.00;0.00;;;5.30;99.90;;;;;;5066252;28;20085;-47
2021/12/02 04:59:25;;;;;;;0.00;0.00;;;5.20;99.90;;;;;;5076867;28;20111;-47
2021/12/02 05:01:50;;;;;;;0.00;0.00;;;5.20;99.90;;;;;;5075983;28;20071;-46
2021/12/02 05:04:16;;;;;;;0.00;0.00;;;5.30;99.90;;;;;;5067386;28;20071;-48
2021/12/02 05:06:42;;;;;;;0.00;0.00;;;5.20;99.90;;;;;;5075499;28;20021;-47
2021/12/02 05:09:07;;;;;;;0.00;0.00;;;5.30;99.90;;;;;;5075312;28;20025;-46
2021/12/02 05:11:34;;;;;;;0.00;0.00;;;5.20;99.90;;;;;;5074944;28;20029;-52
2021/12/02 05:14:00;;;;;;;0.00;0.00;;;5.30;99.90;;;;;;5075070;28;20486;-46
2021/12/02 05:16:26;;;;;;;0.00;0.00;;;5.30;99.90;;;;;;5075915;28;20111;-45
2021/12/02 05:18:51;;;;;;;0.00;0.00;;;5.20;99.90;;;;;;5076703;28;20413;-47
2021/12/02 05:21:18;;;;;;;0.00;0.00;;;5.30;99.90;;;;;;5076675;28;20021;-47
2021/12/02 05:23:44;;;;;;;0.00;0.00;;;5.30;99.90;;;;;;5076479;28;20087;-46
2021/12/02 05:26:10;;;;;;;1.17;1.08;;;5.30;99.90;;;;;;5076472;28;20024;-50
2021/12/02 05:28:36;;;;;;;0.00;0.00;;;5.40;99.90;;;;;;5076263;28;20360;-50
2021/12/02 05:31:02;;;;;;;0.00;0.00;;;5.40;99.90;;;;;;5075917;28;20025;-47
2021/12/02 05:33:28;;;;;;;0.00;0.00;;;5.40;99.90;;;;;;5076443;28;20052;-47
2021/12/02 05:35:53;;;;;;;0.00;0.00;;;5.40;99.90;;;;;;5076208;28;20021;-46
2021/12/02 05:38:19;;;;;;;0.00;0.00;;;5.40;99.90;;;;;;5076342;28;20459;-47
2021/12/02 05:40:45;;;;;;;0.00;0.00;;;5.40;99.90;;;;;;5076125;28;20529;-48
2021/12/02 05:43:10;;;;;;;0.35;0.22;;;5.40;99.90;;;;;;5075948;28;20029;-48
2021/12/02 05:45:36;;;;;;;0.10;0.10;;;5.40;99.90;;;;;;5075984;28;20021;-48
2021/12/02 05:48:02;;;;;;;0.00;0.00;;;5.50;99.90;;;;;;5058202;28;20025;-48
2021/12/02 05:50:27;;;;;;;0.20;0.20;;;5.50;99.90;;;;;;5075869;28;20486;-50
2021/12/02 05:52:53;;;;;;;0.00;0.00;;;5.50;99.90;;;;;;5075900;28;20028;-50
2021/12/02 05:55:19;;;;;;;0.00;0.00;;;5.50;99.90;;;;;;5075682;28;20035;-48
2021/12/02 05:57:45;;;;;;;0.10;0.10;;;5.40;99.90;;;;;;5075736;28;20444;-47
2021/12/02 06:00:11;;;;;;;0.00;0.00;;;5.30;99.90;;;;;;5075882;28;20040;-48
2021/12/02 06:02:37;;;;;;;0.32;0.20;;;5.20;99.90;;;;;;5080733;28;20105;-47
2021/12/02 06:05:04;;;;;;;0.10;0.10;;;5.20;99.90;;;;;;5095207;28;20054;-49
2021/12/02 06:07:31;;;;;;;0.00;0.00;;;5.10;99.90;;;;;;5095616;28;20028;-50
2021/12/02 06:09:56;;;;;;;0.00;0.00;;;5.20;99.90;;;;;;5095490;28;20024;-51
2021/12/02 06:12:22;;;;;;;0.00;0.00;;;5.30;99.90;;;;;;5090910;28;20040;-48
2021/12/02 06:14:48;;;;;;;0.00;0.00;;;5.30;99.90;;;;;;5083341;28;20031;-51
2021/12/02 06:17:14;;;;;;;0.00;0.00;;;5.30;99.90;;;;;;5081966;28;20030;-51
2021/12/02 06:19:39;;;;;;;0.00;0.00;;;5.40;99.90;;;;;;5095045;28;20057;-50
2021/12/02 06:22:05;;;;;;;0.00;0.00;;;5.30;99.90;;;;;;5078458;28;20412;-46
2021/12/02 06:24:42;;;;;;;0.00;0.00;;;5.40;99.90;;;;;;5074908;28;20111;-51
2021/12/02 06:27:07;;;;;;;0.00;0.00;;;5.40;99.90;;;;;;5077101;28;20036;-49
2021/12/02 06:29:33;;;;;;;0.00;0.00;;;5.40;99.90;;;;;;5086937;28;20016;-47
2021/12/02 06:31:59;;;;;;;0.00;0.00;;;5.40;99.90;;;;;;5091685;28;20031;-47
2021/12/02 06:34:24;;;;;;;0.00;0.00;;;5.40;99.90;;;;;;5091041;28;20028;-48
2021/12/02 06:36:50;;;;;;;0.00;0.00;;;5.50;99.90;;;;;;5087984;28;20007;-49
2021/12/02 06:39:16;;;;;;;0.00;0.00;;;5.50;99.90;;;;;;5115337;28;20027;-49
2021/12/02 06:41:41;;;;;;;0.00;0.00;;;5.50;99.90;;;;;;5098622;28;20039;-50
2021/12/02 06:44:07;;;;;;;0.00;0.00;;;5.40;99.90;;;;;;5079319;28;20067;-47
2021/12/02 06:46:32;;;;;;;0.00;0.00;;;5.50;99.90;;;;;;5097741;28;20403;-48
2021/12/02 06:48:58;;;;;;;0.00;0.00;;;5.60;99.90;;;;;;5093994;28;20028;-47
2021/12/02 06:51:24;;;;;;;0.00;0.00;;;5.60;99.90;;;;;;5079020;28;20150;-50
2021/12/02 06:53:50;;;;;;;0.00;0.00;;;5.50;99.90;;;;;;5075054;28;20025;-48
2021/12/02 06:56:16;;;;;;;0.00;0.00;;;5.60;99.90;;;;;;5073812;28;20031;-47
2021/12/02 06:58:41;;;;;;;0.00;0.00;;;5.60;99.90;;;;;;5073698;28;20028;-47
2021/12/02 07:01:07;;;;;;;0.00;0.00;;;5.50;99.90;;;;;;5074001;28;20078;-45
2021/12/02 07:03:33;;;;;;;0.10;0.10;;;5.60;99.90;;;;;;5073765;28;20144;-51
2021/12/02 07:05:58;;;;;;;0.08;0.08;;;5.60;99.90;;;;;;5073583;28;20572;-50
2021/12/02 07:08:24;;;;;;;0.10;0.10;;;5.60;99.90;;;;;;5073808;28;20418;-46
2021/12/02 07:10:50;;;;;;;0.00;0.00;;;5.50;99.90;;;;;;5074401;28;20029;-49
2021/12/02 07:13:16;;;;;;;0.00;0.00;;;5.50;99.90;;;;;;5073690;28;20472;-51
2021/12/02 07:16:01;;;;;;;0.00;0.00;;;5.50;99.90;;;;;;5073924;28;20107;-46
2021/12/02 07:18:26;;;;;;;0.00;0.00;;;5.50;99.90;;;;;;5073725;28;20017;-48
2021/12/02 07:20:52;;;;;;;0.00;0.00;;;5.50;99.90;;;;;;5071983;28;20075;-51
2021/12/02 07:23:20;;;;;;;0.00;0.00;;;5.60;99.90;;;;;;5073604;28;20035;-49
2021/12/02 07:25:47;;;;;;;0.90;0.10;;;5.60;99.90;;;;;;5073218;28;20434;-48
2021/12/02 07:28:14;;;;;;;0.08;0.08;;;5.60;99.90;;;;;;5073414;28;20044;-48
2021/12/02 07:30:40;;;;;;;0.15;0.15;;;5.60;99.90;;;;;;5073657;28;20550;-47
2021/12/02 07:33:09;;;;;;;0.00;0.00;;;5.60;99.90;;;;;;5073762;28;20031;-47
2021/12/02 07:35:35;;;;;;;0.00;0.00;;;5.50;99.90;;;;;;5073403;28;20021;-51
2021/12/02 07:38:02;;;;;;;0.00;0.00;;;5.60;99.90;;;;;;5073341;28;20036;-50
2021/12/02 07:40:29;;;;;;;0.00;0.00;;;5.60;99.90;;;;;;5073401;28;20024;-46
2021/12/02 07:42:58;;;;;;;0.00;0.00;;;5.60;99.90;;;;;;5073174;28;20021;-48
2021/12/02 07:45:27;;;;;;;0.00;0.00;;;5.60;99.90;;;;;;5072977;28;20379;-46
2021/12/02 07:47:52;;;;;;;0.70;0.38;;;5.60;99.90;;;;;;5073052;28;20378;-48
2021/12/02 07:50:18;;;;;;;0.00;0.00;;;5.60;99.90;;;;;;5073214;28;20027;-48
2021/12/02 07:52:53;;;;;;;0.20;0.20;;;5.60;99.90;;;;;;5071567;28;20082;-48
2021/12/02 07:55:20;;;;;;;0.00;0.00;;;5.50;99.90;;;;;;5072814;28;20033;-47
2021/12/02 07:57:47;;;;;;;0.00;0.00;;;5.50;99.90;;;;;;5073101;28;20435;-49
2021/12/02 08:00:19;;;;;;;0.00;0.00;;;5.50;99.90;;;;;;5055298;28;20040;-46
2021/12/02 08:02:47;;;;;;;0.00;0.00;;;5.60;99.90;;;;;;5073009;28;20068;-49
2021/12/02 08:05:14;;;;;;;0.00;0.00;;;5.60;99.90;;;;;;5072785;28;20085;-50
2021/12/02 08:07:41;;;;;;;0.00;0.00;;;5.50;99.90;;;;;;5073113;28;20059;-47
2021/12/02 08:10:08;;;;;;;0.00;0.00;;;5.60;99.90;;;;;;5073217;28;20478;-48
2021/12/02 08:12:36;;;;;;;2.75;2.50;;;5.60;99.90;;;;;;5073270;28;20028;-47
2021/12/02 08:15:07;;;;;;;0.98;0.20;;;5.70;99.90;;;;;;5073219;28;20348;-46
2021/12/02 08:17:34;;;;;;;0.00;0.00;;;5.80;99.90;;;;;;5073105;28;20378;-51
2021/12/02 08:20:00;;;;;;;0.00;0.00;;;6.00;99.90;;;;;;5073008;28;20029;-48
2021/12/02 08:22:26;;;;;;;0.00;0.00;;;6.00;99.90;;;;;;5072556;28;20348;-48
2021/12/02 08:24:52;;;;;;;0.00;0.00;;;5.90;99.90;;;;;;5072635;28;20025;-49
2021/12/02 08:27:18;;;;;;;0.30;0.30;;;6.10;99.90;;;;;;5073152;28;20032;-49
2021/12/02 08:29:43;;;;;;;0.00;0.00;;;6.10;99.90;;;;;;5073193;28;20451;-51
2021/12/02 08:32:09;;;;;;;0.32;0.30;;;6.10;99.90;;;;;;5072346;28;20094;-47
2021/12/02 08:34:35;;;;;;;0.00;0.00;;;5.90;99.90;;;;;;5072657;28;20111;-50
2021/12/02 08:37:01;;;;;;;0.00;0.00;;;5.90;99.90;;;;;;5072791;28;20025;-45
2021/12/02 08:39:31;;;;;;;0.20;0.20;;;5.90;99.90;;;;;;5072944;28;20090;-49
2021/12/02 08:41:57;;;;;;;0.00;0.00;;;5.90;99.90;;;;;;5072828;28;20033;-50
2021/12/02 08:44:30;;;;;;;0.00;0.00;;;5.90;99.90;;;;;;5072754;28;20028;-51
2021/12/02 08:46:55;;;;;;;0.00;0.00;;;5.90;99.90;;;;;;5055101;28;20025;-46
2021/12/02 08:49:22;;;;;;;0.00;0.00;;;6.00;99.90;;;;;;5073095;28;20436;-48
2021/12/02 08:51:49;;;;;;;0.00;0.00;;;6.00;99.90;;;;;;5072794;28;20112;-47
2021/12/02 08:54:15;;;;;;;0.08;0.08;;;6.20;99.90;;;;;;5072490;28;20031;-47
2021/12/02 08:56:41;;;;;;;0.00;0.00;;;6.40;99.90;;;;;;5072334;28;20039;-53
2021/12/02 08:59:07;;;;;;;0.00;0.00;;;6.50;99.90;;;;;;5072497;28;20025;-50
2021/12/02 09:01:34;;;;;;;0.03;0.03;;;6.60;99.90;;;;;;5072522;28;20425;-51
2021/12/02 09:04:02;;;;;;;0.00;0.00;;;6.60;99.90;;;;;;5072819;28;20053;-48
2021/12/02 09:06:28;;;;;;;0.00;0.00;;;6.70;99.90;;;;;;5072656;28;20429;-49
2021/12/02 09:08:56;;;;;;;0.00;0.00;;;6.70;99.90;;;;;;5072602;28;20035;-47
2021/12/02 09:11:22;;;;;;;0.00;0.00;;;6.60;99.90;;;;;;5054846;28;20101;-47
2021/12/02 09:13:48;;;;;;;0.00;0.00;;;6.60;99.90;;;;;;5072369;28;20454;-47
2021/12/02 09:16:14;;;;;;;0.00;0.00;;;6.50;99.90;;;;;;5072175;28;20024;-49
2021/12/02 09:18:40;;;;;;;0.00;0.00;;;6.40;99.90;;;;;;5072530;28;20025;-50
2021/12/02 09:21:06;;;;;;;0.00;0.00;;;6.30;99.90;;;;;;5072207;28;20043;-49
2021/12/02 09:23:32;;;;;;;0.00;0.00;;;6.30;99.90;;;;;;5072375;28;20017;-48
2021/12/02 09:25:58;;;;;;;0.00;0.00;;;6.50;99.90;;;;;;5071130;28;20059;-49
2021/12/02 09:28:25;;;;;;;8.40;0.80;;;6.60;99.90;;;;;;5072227;28;20085;-47
2021/12/02 09:30:51;;;;;;;1.65;1.55;;;6.60;99.90;;;;;;5072215;28;20029;-47
2021/12/02 09:33:17;;;;;;;0.00;0.00;;;6.50;99.90;;;;;;5071890;28;20039;-44
2021/12/02 09:35:43;;;;;;;0.00;0.00;;;6.50;99.90;;;;;;5071893;28;20032;-49
2021/12/02 09:38:10;;;;;;;0.08;0.08;;;6.40;99.90;;;;;;5071897;28;20391;-46
2021/12/02 09:40:37;;;;;;;0.75;0.55;;;6.40;99.90;;;;;;5072129;28;20107;-49
2021/12/02 09:43:03;;;;;;;0.20;0.20;;;6.50;99.90;;;;;;5073482;28;20025;-48
2021/12/02 09:45:28;;;;;;;0.00;0.00;;;6.60;99.90;;;;;;5075739;28;20030;-49
2021/12/02 09:47:55;;;;;;;0.00;0.00;;;6.70;99.90;;;;;;5074393;28;20036;-49
2021/12/02 09:50:29;;;;;;;0.00;0.00;;;6.80;99.90;;;;;;5075716;28;20032;-48
2021/12/02 09:53:04;;;;;;;0.00;0.00;;;6.70;99.90;;;;;;5075345;28;20391;-47
2021/12/02 09:58:04;;;;;;;;;;;6.50;99.90;;;;;;5076071;28;20495;-48
2021/12/02 10:00:48;;;;;;;2.00;0.70;;;6.50;99.90;;;;;;5075383;28;20421;-51
2021/12/02 10:03:21;;;;;;;0.00;0.00;;;6.50;99.90;;;;;;5057541;28;20101;-47
2021/12/02 10:05:54;;;;;;;0.55;0.00;;;6.50;99.90;;;;;;5075217;28;20031;-47
2021/12/02 10:08:28;;;;;;;0.00;0.00;;;6.60;99.90;;;;;;5075294;28;20029;-51
2021/12/02 10:10:58;;;;;;;0.00;0.00;;;6.60;99.90;;;;;;5075532;28;20040;-49
2021/12/02 10:13:30;;;;;;;0.00;0.00;;;6.60;99.90;;;;;;5075401;28;20036;-48
2021/12/02 10:16:07;;;;;;;;;;;6.80;99.90;;;;;;5075671;28;20027;-49
2021/12/02 10:18:43;;;;;;;0.40;0.05;;;6.90;99.90;;;;;;5075313;28;19982;-50
2021/12/02 10:21:17;;;;;;;0.35;0.22;;;6.90;99.90;;;;;;5075277;28;20036;-48
2021/12/02 10:23:47;;;;;;;18.05;5.95;;;7.00;99.90;;;;;;5074969;28;20112;-50
2021/12/02 10:26:13;;;;;;;0.00;0.00;;;7.00;99.90;;;;;;5075046;28;20032;-46
2021/12/02 10:28:42;;;;;;;0.00;0.00;;;7.00;99.90;;;;;;5075235;28;20024;-49
2021/12/02 10:31:10;;;;;;;0.08;0.00;;;7.00;99.90;;;;;;5074812;28;20039;-49
2021/12/02 10:33:38;;;;;;;0.00;0.00;;;7.10;99.90;;;;;;5074983;28;20127;-46
2021/12/02 10:36:07;;;;;;;0.08;0.08;;;7.10;99.90;;;;;;5074874;28;20103;-49
2021/12/02 10:38:37;;;;;;;0.00;0.00;;;7.20;99.90;;;;;;5073239;28;20439;-47
2021/12/02 10:41:12;;;;;;;0.00;0.00;;;7.50;99.90;;;;;;5074895;28;20031;-51
2021/12/02 10:44:04;;;;;;;0.35;0.10;;;7.40;99.90;;;;;;5074245;28;20025;-49
2021/12/02 10:46:29;;;;;;;0.00;0.00;;;7.30;99.90;;;;;;5074294;28;20024;-49
2021/12/02 10:48:55;;;;;;;0.20;0.20;;;7.10;99.90;;;;;;5074825;28;20055;-49
2021/12/02 10:51:38;;;;;;;0.47;0.47;;;7.10;99.90;;;;;;5074533;28;20071;-49
2021/12/02 10:54:13;;;;;;;0.00;0.00;;;7.00;99.90;;;;;;5073226;28;20467;-48
2021/12/02 10:56:41;;;;;;;0.00;0.00;;;7.20;99.90;;;;;;5074215;28;20021;-49
2021/12/02 10:59:29;;;;;;;0.00;0.00;;;7.10;99.90;;;;;;5074461;28;20467;-47
2021/12/02 11:01:59;;;;;;;3.10;0.32;;;7.10;99.90;;;;;;5074579;28;20544;-50
2021/12/02 11:04:26;;;;;;;0.00;0.00;;;7.10;99.90;;;;;;5074542;28;20047;-51
2021/12/02 11:07:00;;;;;;;0.00;0.00;;;6.90;99.90;;;;;;5074176;28;20124;-52
2021/12/02 11:09:30;;;;;;;0.00;0.00;;;7.00;99.90;;;;;;5073947;28;20103;-49
2021/12/02 11:12:18;;;;;;;0.10;0.00;;;7.30;99.90;;;;;;5074237;28;20036;-51
2021/12/02 11:14:57;;;;;;;0.85;0.35;;;7.20;99.90;;;;;;5074392;28;20040;-51
2021/12/02 11:17:29;;;;;;;0.05;0.00;;;7.10;99.90;;;;;;5073815;28;20463;-49
2021/12/02 11:19:55;;;;;;;0.00;0.00;;;7.00;99.90;;;;;;5056183;28;20024;-49
2021/12/02 11:22:23;;;;;;;0.35;0.17;;;7.00;99.90;;;;;;5074363;28;20474;-47
2021/12/02 11:24:50;;;;;;;0.00;0.00;;;7.20;99.90;;;;;;5074016;28;20339;-50
2021/12/02 11:27:38;;;;;;;0.00;0.00;;;7.40;99.90;;;;;;5074029;28;20025;-46
2021/12/02 11:30:09;;;;;;;0.20;0.20;;;7.50;99.90;;;;;;5073442;28;20029;-47
2021/12/02 11:32:40;;;;;;;1.00;0.47;;;7.10;99.90;;;;;;5074227;28;20028;-52
2021/12/02 11:35:10;;;;;;;0.00;0.00;;;7.20;99.90;;;;;;5073563;28;20624;-51
2021/12/02 11:37:37;;;;;;;0.70;0.45;;;7.10;99.90;;;;;;5073330;28;20485;-47
2021/12/02 11:40:08;;;;;;;5.63;0.03;;;7.20;99.90;;;;;;5074147;28;20447;-50
2021/12/02 11:42:37;;;;;;;0.20;0.20;;;7.20;99.90;;;;;;5073615;28;20025;-49
2021/12/02 11:45:03;;;;;;;4.45;0.47;;;7.30;99.90;;;;;;5073403;28;20051;-48
2021/12/02 11:47:29;;;;;;;1.73;0.43;;;7.20;99.90;;;;;;5073368;28;20029;-52
2021/12/02 11:49:55;;;;;;;0.00;0.00;;;7.30;99.90;;;;;;5072889;28;20498;-48
2021/12/02 11:52:21;;;;;;;1.02;0.15;;;7.40;99.90;;;;;;5055277;28;20028;-48
2021/12/02 11:54:47;;;;;;;0.10;0.10;;;7.40;99.90;;;;;;5073347;28;20162;-49
2021/12/02 11:57:12;;;;;;;0.10;0.00;;;7.60;99.90;;;;;;5073251;28;20051;-50
2021/12/02 11:59:38;;;;;;;0.00;0.00;;;7.60;99.90;;;;;;5073283;28;20115;-47
2021/12/02 12:02:04;;;;;;;0.00;0.00;;;7.50;99.90;;;;;;5071766;28;20036;-50
2021/12/02 12:04:31;;;;;;;0.25;0.25;;;7.60;99.90;;;;;;5073076;28;20021;-49
2021/12/02 12:07:14;;;;;;;0.00;0.00;;;7.60;99.90;;;;;;5072964;28;20130;-49
2021/12/02 12:09:40;;;;;;;0.00;0.00;;;7.80;99.90;;;;;;5073158;28;20039;-51
2021/12/02 12:12:07;;;;;;;0.20;0.20;;;7.70;99.90;;;;;;5072850;28;20116;-52
2021/12/02 12:14:37;;;;;;;0.00;0.00;;;7.30;99.90;;;;;;5072765;28;20036;-47
2021/12/02 12:17:15;;;;;;;0.00;0.00;;;7.20;99.90;;;;;;5055039;28;20024;-50
2021/12/02 12:19:46;;;;;;;0.10;0.03;;;7.20;99.90;;;;;;5054883;28;20150;-46
2021/12/02 12:22:35;;;;;;;0.10;0.10;;;7.20;99.90;;;;;;5072876;28;20033;-46
2021/12/02 12:25:09;;;;;;;0.10;0.10;;;7.20;99.90;;;;;;5072994;28;20029;-51
2021/12/02 12:27:37;;;;;;;0.10;0.00;;;7.10;99.90;;;;;;5072841;28;20074;-51
2021/12/02 12:30:07;;;;;;;0.00;0.00;;;6.90;99.90;;;;;;5072193;28;20032;-48
2021/12/02 12:32:39;;;;;;;1.27;0.20;;;7.00;99.90;;;;;;5072728;28;20074;-46
2021/12/02 12:35:11;;;;;;;0.00;0.00;;;7.10;99.90;;;;;;5072727;28;20031;-47
2021/12/02 12:40:11;;;;;;;0.00;0.00;;;6.90;99.90;;;;;;5072615;28;20448;-51
2021/12/02 12:42:57;;;;;;;0.00;0.00;;;6.70;99.90;;;;;;5071936;28;20028;-49
2021/12/02 12:45:28;;;;;;;6.25;0.43;;;6.70;99.90;;;;;;5072835;28;20029;-47
2021/12/02 12:48:02;;;;;;;1.02;1.02;;;6.80;99.90;;;;;;5072536;28;20025;-50
2021/12/02 12:50:39;;;;;;;0.32;0.10;;;6.80;99.90;;;;;;5072243;28;20039;-48
2021/12/02 12:53:05;;;;;;;0.10;0.10;;;6.70;99.90;;;;;;5072401;28;20493;-52
2021/12/02 12:55:32;;;;;;;0.32;0.00;;;6.70;99.90;;;;;;5054625;28;20043;-49
2021/12/02 12:58:12;;;;;;;0.00;0.00;;;6.70;99.90;;;;;;5072336;28;20036;-49
2021/12/02 13:00:46;;;;;;;0.00;0.00;;;6.70;99.90;;;;;;5072388;28;20477;-47
2021/12/02 13:03:20;;;;;;;0.00;0.00;;;6.80;99.90;;;;;;5072770;28;20070;-47
2021/12/02 13:05:53;;;;;;;0.00;0.00;;;6.90;99.90;;;;;;5072114;28;20393;-49
2021/12/02 13:08:23;;;;;;;0.00;0.00;;;7.00;99.90;;;;;;5072870;28;20025;-49
2021/12/02 13:10:59;;;;;;;2.85;1.75;;;6.90;99.90;;;;;;5054228;28;20064;-49
2021/12/02 13:13:30;;;;;;;0.00;0.00;;;6.90;99.90;;;;;;5072374;28;20562;-48
2021/12/02 13:16:09;;;;;;;0.00;0.00;;;6.90;99.90;;;;;;5072161;28;20021;-50
2021/12/02 13:18:38;;;;;;;0.00;0.00;;;6.80;99.90;;;;;;5075057;28;20036;-49